Time;durP1;ratioP1;P1;durP2;ratioP2;P2;SDS_P1;SDS_P2;PMS_P1;PMS_P2;Temp;Humidity;BMP_temperature;BMP_pressure;BME280_temperature;BME280_humidity;BME280_pressure;Samples;Min_cycle;Max_cycle;Signal;HPM_P1;HPM_P2
2023/06/16 00:01:03;;;;;;;7.63;6.93;;;;;;;20.15;40.39;96230.97;4989850;28;20486;-72
2023/06/16 00:03:33;;;;;;;7.20;6.30;;;;;;;20.11;40.33;96234.84;4986354;28;20436;-70
2023/06/16 00:06:03;;;;;;;7.10;6.50;;;;;;;20.23;40.25;96227.66;4987664;28;20528;-69
2023/06/16 00:08:30;;;;;;;6.77;6.17;;;;;;;20.07;40.51;96228.94;4987395;28;20436;-72
2023/06/16 00:10:56;;;;;;;13.50;6.70;;;;;;;19.35;41.98;96232.25;4986896;28;20659;-72
2023/06/16 00:13:22;;;;;;;9.07;6.77;;;;;;;19.06;42.81;96233.75;4987091;28;20444;-72
2023/06/16 00:15:47;;;;;;;8.27;7.13;;;;;;;18.87;42.97;96235.22;4987378;28;20439;-72
2023/06/16 00:18:12;;;;;;;7.23;6.50;;;;;;;18.83;43.36;96237.31;4986496;28;20210;-71
2023/06/16 00:20:38;;;;;;;7.97;6.13;;;;;;;18.74;43.67;96240.66;4987515;28;20213;-71
2023/06/16 00:23:08;;;;;;;42.70;10.23;;;;;;;18.74;43.82;96239.81;4986452;28;20258;-72
2023/06/16 00:25:33;;;;;;;8.47;6.73;;;;;;;18.47;44.42;96237.50;4981752;28;20189;-72
2023/06/16 00:27:59;;;;;;;9.20;6.57;;;;;;;18.65;44.02;96235.22;4988711;28;20439;-72
2023/06/16 00:30:24;;;;;;;40.20;8.80;;;;;;;18.63;43.78;96235.34;4988860;28;20201;-73
2023/06/16 00:32:50;;;;;;;8.03;7.23;;;;;;;18.78;43.75;96238.63;4991104;28;20181;-72
2023/06/16 00:35:15;;;;;;;7.17;6.57;;;;;;;18.76;43.59;96230.78;4995552;28;20509;-72
2023/06/16 00:37:41;;;;;;;16.97;8.40;;;;;;;18.69;43.78;96232.22;4991535;28;20188;-71
2023/06/16 00:40:08;;;;;;;8.43;6.63;;;;;;;18.68;43.87;96235.81;4991138;28;20318;-71
2023/06/16 00:42:33;;;;;;;17.43;7.83;;;;;;;18.66;43.89;96235.13;4990399;28;20436;-71
2023/06/16 00:44:59;;;;;;;8.47;6.93;;;;;;;18.59;44.19;96232.09;4988815;28;20439;-72
2023/06/16 00:47:25;;;;;;;8.60;6.97;;;;;;;18.58;44.00;96226.91;4987910;28;20174;-72
2023/06/16 00:49:51;;;;;;;9.53;5.93;;;;;;;18.63;43.88;96232.69;4986610;28;20169;-73
2023/06/16 00:52:17;;;;;;;20.67;7.90;;;;;;;18.57;43.73;96231.38;4982614;28;20181;-71
2023/06/16 00:54:43;;;;;;;12.70;7.03;;;;;;;18.50;43.64;96224.84;4986267;28;20183;-73
2023/06/16 00:57:09;;;;;;;11.77;7.27;;;;;;;18.56;43.64;96229.66;4968297;28;20865;-71
2023/06/16 00:59:34;;;;;;;7.57;6.50;;;;;;;18.49;43.68;96223.13;4984942;28;20459;-71
2023/06/16 01:02:00;;;;;;;7.33;6.63;;;;;;;18.54;43.81;96225.44;4985774;28;20283;-71
2023/06/16 01:04:27;;;;;;;11.60;7.40;;;;;;;18.40;43.94;96230.03;4985755;28;20917;-72
2023/06/16 01:07:02;;;;;;;12.77;7.40;;;;;;;18.36;44.47;96223.25;4985528;28;20227;-72
2023/06/16 01:09:37;;;;;;;11.20;7.03;;;;;;;18.43;44.12;96225.44;4985251;28;20837;-70
2023/06/16 01:12:17;;;;;;;8.13;7.27;;;;;;;18.28;44.40;96215.03;4985727;28;20454;-71
2023/06/16 01:14:56;;;;;;;9.33;7.20;;;;;;;18.31;44.68;96229.91;4985931;28;20434;-71
2023/06/16 01:17:24;;;;;;;9.90;7.70;;;;;;;18.24;44.38;96226.88;4985049;28;20432;-72
2023/06/16 01:19:57;;;;;;;9.67;7.17;;;;;;;18.35;44.52;96221.59;4986036;28;20463;-72
2023/06/16 01:22:48;;;;;;;10.50;6.10;;;;;;;18.31;44.77;96220.13;4986196;28;20909;-72
2023/06/16 01:25:14;;;;;;;8.73;7.33;;;;;;;18.24;44.66;96228.69;4985607;28;20534;-72
2023/06/16 01:27:47;;;;;;;8.13;7.30;;;;;;;18.07;45.61;96228.19;4984832;28;20772;-72
2023/06/16 01:30:15;;;;;;;18.03;6.93;;;;;;;18.08;45.45;96226.38;4985965;28;20451;-71
2023/06/16 01:32:43;;;;;;;9.73;6.40;;;;;;;18.13;45.17;96216.22;4985165;28;20784;-72
2023/06/16 01:35:10;;;;;;;7.27;6.67;;;;;;;18.02;45.20;96213.53;4985231;28;20517;-73
2023/06/16 01:37:37;;;;;;;7.50;6.73;;;;;;;17.92;45.92;96213.41;4984385;28;20539;-72
2023/06/16 01:40:03;;;;;;;8.93;6.63;;;;;;;17.92;45.68;96221.38;4985748;28;20472;-71
2023/06/16 01:42:30;;;;;;;9.50;7.10;;;;;;;17.85;45.53;96218.34;4985958;28;20440;-72
2023/06/16 01:44:56;;;;;;;8.03;6.80;;;;;;;17.87;46.01;96215.56;4985640;28;20491;-71
2023/06/16 01:47:22;;;;;;;8.37;7.60;;;;;;;17.92;45.83;96210.75;4984960;28;20444;-72
2023/06/16 01:49:48;;;;;;;11.27;7.20;;;;;;;17.84;46.03;96211.34;4985936;28;20530;-71
2023/06/16 01:52:14;;;;;;;7.00;6.33;;;;;;;17.83;46.28;96219.41;4985694;28;20910;-73
2023/06/16 01:54:39;;;;;;;8.87;6.90;;;;;;;17.91;45.91;96211.72;4985365;28;20435;-74
2023/06/16 01:57:05;;;;;;;10.07;6.87;;;;;;;17.82;46.24;96210.63;4985390;28;20271;-71
2023/06/16 01:59:31;;;;;;;14.03;7.43;;;;;;;17.89;46.14;96211.84;4984975;28;20201;-71
2023/06/16 02:02:12;;;;;;;8.80;7.00;;;;;;;17.84;46.46;96211.34;4985695;28;20204;-73
2023/06/16 02:04:42;;;;;;;20.57;8.43;;;;;;;17.76;46.68;96213.69;4985421;28;20588;-72
2023/06/16 02:07:12;;;;;;;32.77;9.10;;;;;;;17.82;46.04;96207.13;4985011;28;20432;-70
2023/06/16 02:09:38;;;;;;;26.70;9.33;;;;;;;17.63;46.85;96204.97;4985884;28;20524;-71
2023/06/16 02:12:05;;;;;;;11.50;7.50;;;;;;;17.66;46.21;96202.91;4989359;28;20538;-74
2023/06/16 02:14:35;;;;;;;7.00;6.40;;;;;;;17.52;46.47;96209.25;4988971;28;20435;-71
2023/06/16 02:17:12;;;;;;;10.87;7.43;;;;;;;17.56;46.59;96199.28;4988702;28;20965;-72
2023/06/16 02:19:38;;;;;;;9.70;7.07;;;;;;;17.48;46.57;96205.16;4983871;28;20473;-72
2023/06/16 02:22:05;;;;;;;7.90;7.10;;;;;;;17.45;46.82;96207.19;4988518;28;20989;-74
2023/06/16 02:24:31;;;;;;;12.40;7.97;;;;;;;17.34;47.37;96208.84;4988495;28;20432;-70
2023/06/16 02:26:56;;;;;;;15.87;7.97;;;;;;;17.29;47.23;96220.72;4988576;28;20494;-74
2023/06/16 02:29:21;;;;;;;15.30;8.13;;;;;;;17.16;48.00;96214.66;4987870;28;20312;-69
2023/06/16 02:31:48;;;;;;;24.57;8.70;;;;;;;17.39;47.14;96216.47;4988292;28;20208;-71
2023/06/16 02:34:15;;;;;;;12.50;7.90;;;;;;;17.40;47.14;96212.84;4988578;28;20180;-71
2023/06/16 02:36:40;;;;;;;9.43;7.27;;;;;;;17.41;47.06;96208.38;4989687;28;20439;-71
2023/06/16 02:39:06;;;;;;;15.07;8.27;;;;;;;17.41;46.73;96208.38;4988321;28;20436;-70
2023/06/16 02:41:33;;;;;;;31.73;8.83;;;;;;;17.32;47.11;96209.91;4988759;28;20262;-71
2023/06/16 02:43:59;;;;;;;18.37;8.27;;;;;;;17.35;47.32;96215.00;4989101;28;20741;-74
2023/06/16 02:46:24;;;;;;;9.07;7.40;;;;;;;17.37;47.07;96206.94;4989778;28;20438;-71
2023/06/16 02:48:50;;;;;;;22.43;8.47;;;;;;;17.36;47.25;96203.41;4988498;28;20184;-73
2023/06/16 02:51:15;;;;;;;10.13;7.40;;;;;;;17.29;47.54;96212.78;4988899;28;20673;-71
2023/06/16 02:53:41;;;;;;;9.87;8.10;;;;;;;17.13;47.97;96218.38;4988267;28;20188;-72
2023/06/16 02:56:07;;;;;;;10.70;7.40;;;;;;;17.04;48.61;96217.22;4988895;28;20181;-73
2023/06/16 02:58:32;;;;;;;21.47;8.23;;;;;;;17.08;48.18;96226.66;4988921;28;20180;-71
2023/06/16 03:00:58;;;;;;;13.70;8.67;;;;;;;17.14;48.59;96228.00;4987926;28;20200;-72
2023/06/16 03:03:25;;;;;;;58.23;12.37;;;;;;;17.03;48.64;96226.16;4989262;28;20231;-73
2023/06/16 03:05:50;;;;;;;29.23;9.00;;;;;;;17.12;48.85;96219.31;5020553;28;20176;-70
2023/06/16 03:08:16;;;;;;;19.17;8.00;;;;;;;17.20;47.80;96222.28;4989876;28;20435;-71
2023/06/16 03:10:41;;;;;;;23.67;8.60;;;;;;;17.20;47.71;96221.44;4990415;28;20363;-74
2023/06/16 03:13:07;;;;;;;21.30;8.93;;;;;;;17.24;47.65;96217.56;4988786;28;20266;-70
2023/06/16 03:15:32;;;;;;;12.90;7.93;;;;;;;17.29;47.79;96220.72;4990129;28;20324;-70
2023/06/16 03:17:57;;;;;;;11.70;8.30;;;;;;;17.18;48.18;96218.03;4988682;28;20212;-71
2023/06/16 03:20:23;;;;;;;17.63;7.87;;;;;;;17.12;48.26;96214.00;4988100;28;20802;-71
2023/06/16 03:22:48;;;;;;;15.27;8.23;;;;;;;17.03;48.52;96214.69;4986775;28;20192;-73
2023/06/16 03:25:15;;;;;;;12.50;8.33;;;;;;;17.14;48.09;96212.94;4986251;28;20173;-73
2023/06/16 03:27:41;;;;;;;23.10;8.27;;;;;;;17.10;47.97;96218.56;4987990;28;20619;-73
2023/06/16 03:30:09;;;;;;;11.80;8.10;;;;;;;17.11;48.24;96220.28;4988028;28;20520;-71
2023/06/16 03:32:37;;;;;;;17.17;8.23;;;;;;;17.08;48.43;96224.00;4987624;28;20420;-72
2023/06/16 03:35:03;;;;;;;15.33;7.70;;;;;;;17.05;48.24;96226.88;4986647;28;20447;-73
2023/06/16 03:37:28;;;;;;;44.97;10.67;;;;;;;16.93;48.47;96225.94;4988162;28;20432;-72
2023/06/16 03:39:53;;;;;;;33.40;10.47;;;;;;;17.02;48.65;96220.97;4987954;28;20482;-73
2023/06/16 03:42:19;;;;;;;23.73;9.70;;;;;;;17.01;48.39;96230.72;4988217;28;20239;-73
2023/06/16 03:44:44;;;;;;;22.63;8.33;;;;;;;16.96;48.41;96227.56;4987468;28;20339;-73
2023/06/16 03:47:10;;;;;;;42.17;11.03;;;;;;;16.95;48.61;96225.84;4985783;28;20176;-72
2023/06/16 03:49:36;;;;;;;17.40;8.10;;;;;;;16.90;48.50;96235.94;4988121;28;20189;-71
2023/06/16 03:52:01;;;;;;;17.87;8.50;;;;;;;16.87;48.55;96230.88;4987813;28;20812;-72
2023/06/16 03:54:26;;;;;;;22.83;9.23;;;;;;;16.90;48.33;96230.66;4987279;28;20204;-74
2023/06/16 03:56:52;;;;;;;19.30;8.60;;;;;;;16.85;48.46;96223.03;4987627;28;20354;-71
2023/06/16 03:59:18;;;;;;;11.63;7.70;;;;;;;16.91;48.47;96233.19;4986594;28;20177;-71
2023/06/16 04:01:46;;;;;;;9.47;8.30;;;;;;;16.86;48.75;96226.50;4987484;28;20200;-72
2023/06/16 04:04:12;;;;;;;9.33;7.80;;;;;;;16.82;48.62;96238.28;4986877;28;20435;-72
2023/06/16 04:06:40;;;;;;;24.33;8.77;;;;;;;16.88;49.02;96236.03;4987187;28;20435;-71
2023/06/16 04:09:05;;;;;;;20.70;8.20;;;;;;;17.03;48.24;96230.59;4986395;28;20193;-71
2023/06/16 04:11:31;;;;;;;51.70;12.00;;;;;;;17.20;47.77;96229.38;4987250;28;20455;-71
2023/06/16 04:13:57;;;;;;;9.50;7.40;;;;;;;17.21;47.95;96241.69;4986313;28;20185;-71
2023/06/16 04:16:22;;;;;;;28.13;9.30;;;;;;;17.28;48.04;96234.97;4986706;28;20432;-71
2023/06/16 04:18:48;;;;;;;40.33;10.87;;;;;;;17.42;47.29;96229.50;4986265;28;20941;-72
2023/06/16 04:21:17;;;;;;;19.47;9.70;;;;;;;17.47;47.59;96242.41;4984782;28;20328;-75
2023/06/16 04:23:42;;;;;;;17.83;8.40;;;;;;;17.61;46.80;96238.75;4985554;28;20223;-71
2023/06/16 04:26:08;;;;;;;14.17;7.90;;;;;;;17.84;46.77;96237.88;4985487;28;20816;-71
2023/06/16 04:28:38;;;;;;;13.87;7.57;;;;;;;17.94;46.38;96244.19;4984854;28;20187;-73
2023/06/16 04:31:05;;;;;;;11.47;8.10;;;;;;;17.79;46.18;96240.03;5013300;28;20185;-73
2023/06/16 04:33:30;;;;;;;18.03;8.43;;;;;;;17.69;46.68;96241.66;4986077;28;20436;-72
2023/06/16 04:35:55;;;;;;;16.13;8.17;;;;;;;17.75;47.15;96241.19;4987018;28;20933;-71
2023/06/16 04:38:22;;;;;;;22.20;10.00;;;;;;;17.90;46.23;96242.72;4986553;28;20577;-72
2023/06/16 04:40:48;;;;;;;32.00;12.63;;;;;;;18.09;46.21;96244.81;4982069;28;20220;-71
2023/06/16 04:43:14;;;;;;;20.07;9.37;;;;;;;18.20;45.12;96236.88;4986432;28;20432;-75
2023/06/16 04:45:39;;;;;;;26.30;9.77;;;;;;;18.47;44.87;96245.47;4984799;28;20443;-72
2023/06/16 04:48:04;;;;;;;33.80;13.30;;;;;;;18.41;45.13;96244.16;4986917;28;20215;-75
2023/06/16 04:50:30;;;;;;;11.70;7.97;;;;;;;18.23;45.53;96240.25;4987713;28;20686;-74
2023/06/16 04:52:56;;;;;;;12.50;7.90;;;;;;;18.15;45.90;96240.88;4983877;28;20172;-71
2023/06/16 04:55:21;;;;;;;27.93;10.90;;;;;;;18.02;46.06;96238.28;4986408;28;20177;-70
2023/06/16 04:57:47;;;;;;;29.07;9.37;;;;;;;18.03;46.26;96244.47;4986871;28;20175;-74
2023/06/16 05:00:13;;;;;;;16.33;11.80;;;;;;;18.03;46.32;96240.00;4986833;28;20200;-73
2023/06/16 05:02:40;;;;;;;21.10;9.53;;;;;;;18.19;45.79;96237.00;4988609;28;20894;-72
2023/06/16 05:05:06;;;;;;;12.60;8.70;;;;;;;18.17;46.03;96241.59;4985635;28;20265;-73
2023/06/16 05:07:31;;;;;;;30.00;10.47;;;;;;;18.01;46.37;96251.69;4986962;28;20428;-73
2023/06/16 05:09:57;;;;;;;13.90;8.40;;;;;;;18.03;46.32;96253.28;4987263;28;20169;-72
2023/06/16 05:12:25;;;;;;;15.63;7.97;;;;;;;18.19;46.29;96242.34;4986541;28;20197;-72
2023/06/16 05:14:51;;;;;;;17.57;8.77;;;;;;;18.02;46.32;96240.09;4987157;28;20438;-73
2023/06/16 05:17:17;;;;;;;17.37;9.77;;;;;;;18.12;45.97;96235.81;4984592;28;20522;-75
2023/06/16 05:19:42;;;;;;;25.40;10.60;;;;;;;18.18;45.87;96236.16;4984732;28;20300;-71
2023/06/16 05:22:07;;;;;;;20.17;9.00;;;;;;;18.45;45.46;96236.78;4986952;28;20305;-71
2023/06/16 05:24:33;;;;;;;20.47;8.73;;;;;;;18.53;45.50;96240.53;4982890;28;20180;-69
2023/06/16 05:26:58;;;;;;;25.10;8.53;;;;;;;18.44;46.42;96237.75;4984236;28;20381;-71
2023/06/16 05:29:24;;;;;;;29.23;11.03;;;;;;;18.60;45.79;96240.91;4984197;28;20212;-70
2023/06/16 05:31:50;;;;;;;9.40;7.70;;;;;;;18.49;45.77;96238.25;4983060;28;20215;-69
2023/06/16 05:34:15;;;;;;;10.67;7.80;;;;;;;18.47;45.90;96237.50;4994407;28;20184;-68
2023/06/16 05:36:41;;;;;;;17.20;8.00;;;;;;;18.47;45.56;96241.00;4995239;28;20528;-68
2023/06/16 05:39:07;;;;;;;10.67;9.13;;;;;;;18.53;45.46;96237.03;4984357;28;20183;-69
2023/06/16 05:41:34;;;;;;;20.17;9.57;;;;;;;18.53;45.63;96235.22;4981540;28;20232;-72
2023/06/16 05:44:00;;;;;;;27.77;11.30;;;;;;;18.69;45.04;96244.66;4983043;28;20443;-69
2023/06/16 05:46:25;;;;;;;20.57;8.70;;;;;;;18.52;45.36;96243.31;4988738;28;21117;-70
2023/06/16 05:48:51;;;;;;;15.83;9.20;;;;;;;18.60;45.33;96240.91;4988435;28;20211;-69
2023/06/16 05:51:16;;;;;;;9.30;7.57;;;;;;;18.52;46.01;96243.31;4988494;28;20196;-69
2023/06/16 05:53:41;;;;;;;60.20;12.53;;;;;;;18.45;47.50;96247.41;4987888;28;20218;-70
2023/06/16 05:56:07;;;;;;;16.23;9.83;;;;;;;18.61;47.25;96248.78;4984713;28;20286;-70
2023/06/16 05:58:35;;;;;;;15.20;9.70;;;;;;;18.53;47.88;96253.81;4985958;28;20175;-71
2023/06/16 06:01:02;;;;;;;24.20;10.70;;;;;;;18.60;48.47;96257.69;4988319;28;20197;-71
2023/06/16 06:03:27;;;;;;;18.10;10.63;;;;;;;18.56;49.37;96260.72;4995234;28;20431;-71
2023/06/16 06:05:53;;;;;;;36.90;13.70;;;;;;;18.82;49.42;96264.00;4985870;28;20423;-71
2023/06/16 06:08:22;;;;;;;21.20;12.30;;;;;;;18.78;49.88;96266.09;4992373;28;20524;-71
2023/06/16 06:10:48;;;;;;;21.03;12.87;;;;;;;18.74;49.93;96261.09;4991857;28;20204;-72
2023/06/16 06:13:13;;;;;;;15.90;13.40;;;;;;;18.84;49.92;96267.41;4993049;28;20485;-70
2023/06/16 06:15:39;;;;;;;24.90;12.80;;;;;;;19.65;48.00;96271.50;4996202;28;20188;-71
2023/06/16 06:18:04;;;;;;;22.97;13.13;;;;;;;19.82;47.54;96266.63;4998140;28;20172;-70
2023/06/16 06:20:30;;;;;;;23.33;12.20;;;;;;;20.21;46.45;96264.22;4992037;28;20201;-71
2023/06/16 06:22:55;;;;;;;23.47;11.57;;;;;;;20.45;45.39;96264.78;4979969;28;20212;-71
2023/06/16 06:25:20;;;;;;;22.87;13.57;;;;;;;20.72;45.13;96260.78;4989852;28;20330;-72
2023/06/16 06:27:46;;;;;;;22.70;11.57;;;;;;;21.06;43.91;96268.47;4991446;28;20187;-71
2023/06/16 06:30:11;;;;;;;22.63;12.77;;;;;;;21.29;43.44;96266.44;4991943;28;20280;-73
2023/06/16 06:32:38;;;;;;;16.93;10.50;;;;;;;21.46;42.79;96267.63;4991487;28;20200;-72
2023/06/16 06:35:04;;;;;;;17.67;11.70;;;;;;;21.61;42.63;96276.91;4991250;28;20415;-72
2023/06/16 06:37:31;;;;;;;13.50;12.03;;;;;;;21.74;42.62;96266.81;4991471;28;20188;-71
2023/06/16 06:39:56;;;;;;;20.70;12.10;;;;;;;21.59;42.77;96273.56;4990600;28;20542;-70
2023/06/16 06:42:23;;;;;;;13.50;10.90;;;;;;;21.90;42.01;96266.28;4990649;28;20522;-72
2023/06/16 06:44:49;;;;;;;17.63;11.40;;;;;;;22.14;41.40;96270.34;4990181;28;20191;-71
2023/06/16 06:47:14;;;;;;;16.60;10.70;;;;;;;22.29;41.21;96274.28;4990439;28;20438;-71
2023/06/16 06:49:41;;;;;;;22.00;12.07;;;;;;;22.51;40.88;96267.78;4989479;28;20420;-74
2023/06/16 06:52:07;;;;;;;22.67;11.20;;;;;;;22.82;39.90;96270.22;4991743;28;20193;-73
2023/06/16 06:54:32;;;;;;;20.70;12.00;;;;;;;22.88;39.98;96269.63;4991600;28;20950;-73
2023/06/16 06:56:57;;;;;;;32.63;14.57;;;;;;;23.18;39.30;96275.72;4990922;28;20188;-73
2023/06/16 06:59:23;;;;;;;17.63;12.00;;;;;;;23.15;39.28;96279.56;4991280;28;20212;-73
2023/06/16 07:01:48;;;;;;;18.63;12.40;;;;;;;23.25;38.91;96284.84;4992332;28;20315;-73
2023/06/16 07:04:14;;;;;;;13.67;12.27;;;;;;;22.73;40.28;96271.09;4991522;28;20524;-73
2023/06/16 07:06:39;;;;;;;28.43;12.33;;;;;;;23.12;39.61;96281.66;4991654;28;20184;-74
2023/06/16 07:09:05;;;;;;;25.83;12.70;;;;;;;23.40;39.09;96286.03;4991868;28;20181;-73
2023/06/16 07:11:30;;;;;;;21.70;12.57;;;;;;;23.48;38.85;96282.63;4992707;28;20737;-74
2023/06/16 07:13:55;;;;;;;18.43;11.07;;;;;;;23.41;38.63;96278.81;4992042;28;20177;-74
2023/06/16 07:16:21;;;;;;;14.30;11.20;;;;;;;23.46;38.81;96281.94;4991629;28;20276;-74
2023/06/16 07:18:46;;;;;;;13.20;10.97;;;;;;;23.88;37.55;96273.31;4992067;28;20724;-74
2023/06/16 07:21:11;;;;;;;11.70;10.53;;;;;;;24.11;37.22;96279.06;4992279;28;20209;-73
2023/06/16 07:23:37;;;;;;;38.90;14.50;;;;;;;24.27;36.65;96271.16;4992225;28;20566;-73
2023/06/16 07:26:02;;;;;;;17.73;11.40;;;;;;;24.49;35.93;96277.91;4991027;28;20627;-74
2023/06/16 07:28:28;;;;;;;27.90;11.17;;;;;;;24.63;35.90;96276.47;4991083;28;20685;-74
2023/06/16 07:30:54;;;;;;;25.63;10.30;;;;;;;24.94;35.26;96278.69;4990680;28;20519;-74
2023/06/16 07:33:21;;;;;;;14.33;9.77;;;;;;;24.84;35.05;96275.28;4991925;28;20176;-74
2023/06/16 07:35:46;;;;;;;10.57;9.17;;;;;;;24.95;34.79;96274.19;4992236;28;20427;-74
2023/06/16 07:38:11;;;;;;;26.40;9.77;;;;;;;25.21;34.44;96277.69;4991672;28;20419;-73
2023/06/16 07:40:37;;;;;;;13.97;8.73;;;;;;;25.20;33.89;96273.28;4990716;28;20575;-74
2023/06/16 07:43:03;;;;;;;10.60;6.83;;;;;;;25.22;34.42;96265.09;4991533;28;20260;-74
2023/06/16 07:45:31;;;;;;;15.50;8.50;;;;;;;25.34;33.56;96267.31;4991485;28;20947;-74
2023/06/16 07:47:56;;;;;;;14.53;7.60;;;;;;;25.33;32.89;96262.13;4991352;28;20733;-74
2023/06/16 07:50:22;;;;;;;10.47;6.80;;;;;;;25.56;32.72;96265.88;4990805;28;20431;-73
2023/06/16 07:52:47;;;;;;;8.33;6.50;;;;;;;25.80;32.12;96255.34;4989119;28;20681;-74
2023/06/16 07:55:14;;;;;;;11.57;6.43;;;;;;;25.43;31.51;96259.28;4989917;28;20180;-74
2023/06/16 07:57:40;;;;;;;11.97;6.53;;;;;;;25.59;32.51;96255.81;4990499;28;20177;-74
2023/06/16 08:00:11;;;;;;;9.70;6.77;;;;;;;25.59;30.01;96250.44;4990734;28;20509;-73
2023/06/16 08:02:36;;;;;;;19.57;6.87;;;;;;;25.49;30.62;96254.13;4991029;28;20182;-73
2023/06/16 08:05:02;;;;;;;33.23;8.53;;;;;;;24.99;28.97;96256.72;4990900;28;20408;-74
2023/06/16 08:07:27;;;;;;;34.83;7.93;;;;;;;24.59;30.53;96258.16;4991069;28;20173;-75
2023/06/16 08:09:52;;;;;;;8.30;5.00;;;;;;;25.09;26.02;96257.47;4992535;28;20277;-73
2023/06/16 08:12:18;;;;;;;9.13;4.40;;;;;;;25.19;26.49;96260.88;4992161;28;20204;-71
2023/06/16 08:14:43;;;;;;;12.20;6.50;;;;;;;25.21;27.12;96260.72;4990604;28;20177;-74
2023/06/16 08:17:08;;;;;;;10.30;5.00;;;;;;;25.59;25.83;96242.38;4993735;28;20177;-74
2023/06/16 08:19:34;;;;;;;13.77;5.03;;;;;;;25.92;25.46;96249.50;4989970;28;20215;-73
2023/06/16 08:22:00;;;;;;;7.40;5.50;;;;;;;26.23;25.57;96243.47;5020537;28;20576;-72
2023/06/16 08:24:25;;;;;;;10.50;5.27;;;;;;;26.53;24.53;96244.63;4986910;28;20176;-73
2023/06/16 08:26:52;;;;;;;17.33;6.43;;;;;;;26.39;24.23;96254.22;4987893;28;20520;-74
2023/06/16 08:29:19;;;;;;;13.90;5.70;;;;;;;26.09;22.55;96236.09;4985096;28;20181;-75
2023/06/16 08:31:45;;;;;;;11.40;4.80;;;;;;;25.40;25.02;96243.50;4989651;28;20431;-73
2023/06/16 08:34:11;;;;;;;7.83;5.07;;;;;;;25.10;25.50;96246.53;4989591;28;20431;-74
2023/06/16 08:36:37;;;;;;;7.83;5.13;;;;;;;25.37;23.31;96249.19;4989648;28;20180;-73
2023/06/16 08:39:04;;;;;;;7.50;5.27;;;;;;;25.75;22.66;96237.03;4990512;28;20165;-74
2023/06/16 08:41:33;;;;;;;12.07;5.20;;;;;;;25.97;22.67;96236.41;4989172;28;20204;-73
2023/06/16 08:44:02;;;;;;;9.70;5.37;;;;;;;26.26;22.81;96250.38;4988007;28;20470;-74
2023/06/16 08:46:27;;;;;;;15.40;6.10;;;;;;;26.52;22.78;96244.78;4989112;28;20419;-75
2023/06/16 08:48:53;;;;;;;20.03;6.13;;;;;;;26.33;22.97;96251.38;4988970;28;20423;-73
2023/06/16 08:51:23;;;;;;;28.20;6.30;;;;;;;26.58;22.80;96241.47;4987443;28;20212;-74
2023/06/16 08:53:54;;;;;;;18.10;5.30;;;;;;;26.89;21.67;96246.09;4986372;28;20192;-74
2023/06/16 08:56:20;;;;;;;15.20;5.37;;;;;;;27.24;21.25;96242.13;4985723;28;20459;-74
2023/06/16 08:58:47;;;;;;;10.20;5.13;;;;;;;27.27;21.88;96240.94;4987157;28;20420;-73
2023/06/16 09:01:14;;;;;;;30.67;7.47;;;;;;;27.45;21.12;96236.16;4988046;28;20648;-74
2023/06/16 09:03:41;;;;;;;14.23;5.90;;;;;;;26.61;22.00;96238.41;4988770;28;20442;-75
2023/06/16 09:06:10;;;;;;;26.70;7.77;;;;;;;26.97;22.13;96236.13;4987960;28;20835;-74
2023/06/16 09:08:36;;;;;;;32.17;6.90;;;;;;;27.05;21.20;96235.28;4988727;28;20432;-74
2023/06/16 09:11:07;;;;;;;10.30;5.13;;;;;;;27.23;21.55;96238.56;4986779;28;20486;-75
2023/06/16 09:13:32;;;;;;;41.53;9.17;;;;;;;26.74;21.79;96232.50;4986955;28;20527;-74
2023/06/16 09:15:59;;;;;;;9.60;5.00;;;;;;;25.89;23.19;96239.09;4987629;28;20514;-74
2023/06/16 09:18:36;;;;;;;23.07;6.13;;;;;;;25.40;23.91;96236.28;4986485;28;20489;-74
2023/06/16 09:21:05;;;;;;;16.13;5.80;;;;;;;25.83;23.38;96230.81;4987499;28;20471;-73
2023/06/16 09:23:31;;;;;;;8.87;4.97;;;;;;;25.94;23.85;96239.44;4994281;28;20438;-73
2023/06/16 09:25:57;;;;;;;7.07;5.13;;;;;;;26.04;22.67;96230.38;4988537;28;20459;-74
2023/06/16 09:28:41;;;;;;;14.80;6.70;;;;;;;26.59;22.57;96229.66;4985971;28;20526;-74
2023/06/16 09:31:08;;;;;;;14.97;5.50;;;;;;;26.60;22.05;96220.59;4990907;28;20294;-75
2023/06/16 09:33:34;;;;;;;34.90;8.77;;;;;;;26.94;22.48;96227.56;4988132;28;20591;-74
2023/06/16 09:36:00;;;;;;;37.73;9.10;;;;;;;27.18;21.87;96219.38;5020133;28;20432;-74
2023/06/16 09:38:27;;;;;;;32.83;6.80;;;;;;;26.84;22.06;96217.00;4989389;28;21202;-73
2023/06/16 09:40:54;;;;;;;5.17;4.50;;;;;;;26.53;22.58;96219.56;4989044;28;20204;-75
2023/06/16 09:43:20;;;;;;;8.83;4.67;;;;;;;26.52;22.88;96207.94;4989038;28;20453;-75
2023/06/16 09:45:54;;;;;;;16.83;6.07;;;;;;;26.85;22.35;96220.53;4987395;28;20921;-75
2023/06/16 09:48:19;;;;;;;6.03;5.43;;;;;;;26.74;22.11;96217.19;4978621;28;20534;-72
2023/06/16 09:50:45;;;;;;;7.03;5.77;;;;;;;26.48;22.89;96208.47;4986276;28;20515;-73
2023/06/16 09:53:10;;;;;;;11.17;5.87;;;;;;;26.50;22.85;96215.34;4988544;28;20184;-74
2023/06/16 09:55:38;;;;;;;11.57;5.50;;;;;;;26.63;22.39;96214.88;4986630;28;20846;-75
2023/06/16 09:58:03;;;;;;;11.13;6.10;;;;;;;26.97;22.19;96213.75;4990330;28;20180;-74
2023/06/16 10:00:30;;;;;;;8.47;5.20;;;;;;;27.01;21.68;96210.53;4995182;28;20537;-75
2023/06/16 10:02:57;;;;;;;10.20;5.37;;;;;;;26.94;21.57;96204.16;4988574;28;20180;-73
2023/06/16 10:05:24;;;;;;;10.27;5.00;;;;;;;26.96;21.71;96198.63;4988228;28;20530;-74
2023/06/16 10:07:52;;;;;;;7.60;5.03;;;;;;;26.81;22.16;96195.78;4989040;28;20888;-74
2023/06/16 10:10:20;;;;;;;10.70;6.10;;;;;;;27.02;21.78;96204.16;4989387;28;20482;-75
2023/06/16 10:12:47;;;;;;;8.63;5.23;;;;;;;26.95;22.06;96197.78;4989424;28;20458;-73
2023/06/16 10:15:23;;;;;;;12.10;5.67;;;;;;;27.09;21.25;96198.88;4989325;28;20408;-75
2023/06/16 10:17:50;;;;;;;8.30;5.40;;;;;;;27.17;21.35;96190.78;4991850;28;20889;-74
2023/06/16 10:20:22;;;;;;;7.43;4.93;;;;;;;26.88;21.33;96201.31;4988230;28;20972;-73
2023/06/16 10:22:49;;;;;;;5.87;4.70;;;;;;;27.03;21.09;96199.59;4986904;28;20506;-74
2023/06/16 10:25:14;;;;;;;14.40;6.00;;;;;;;26.55;22.24;96194.19;4988364;28;20419;-74
2023/06/16 10:27:40;;;;;;;16.40;6.30;;;;;;;26.84;21.25;96195.47;4988491;28;20459;-74
2023/06/16 10:30:09;;;;;;;6.67;4.83;;;;;;;27.00;21.45;96199.91;4989207;28;20172;-74
2023/06/16 10:32:35;;;;;;;6.87;5.33;;;;;;;27.01;21.45;96198.94;5001658;28;20852;-74
2023/06/16 10:35:01;;;;;;;8.27;5.80;;;;;;;27.10;21.67;96203.28;5013305;28;20426;-74
2023/06/16 10:37:28;;;;;;;12.33;5.47;;;;;;;26.73;21.69;96198.53;5009793;28;20904;-73
2023/06/16 10:40:03;;;;;;;10.53;6.50;;;;;;;26.82;21.62;96198.31;4993234;28;20220;-74
2023/06/16 10:42:33;;;;;;;6.70;5.20;;;;;;;26.94;20.75;96190.69;4993165;28;20429;-74
2023/06/16 10:45:29;;;;;;;16.73;5.77;;;;;;;26.60;20.62;96197.22;4993521;28;20431;-75
2023/06/16 10:47:58;;;;;;;12.70;6.60;;;;;;;26.32;21.97;96199.41;4992388;28;20422;-74
2023/06/16 10:50:38;;;;;;;5.27;4.73;;;;;;;26.19;22.13;96199.09;5024972;28;20538;-74
2023/06/16 10:53:12;;;;;;;12.53;6.30;;;;;;;26.50;22.11;96201.06;4993127;28;21026;-74
2023/06/16 10:55:41;;;;;;;6.63;6.00;;;;;;;26.75;20.92;96207.25;4993397;28;20412;-75
2023/06/16 10:58:24;;;;;;;6.17;5.27;;;;;;;26.62;19.42;96199.72;4994703;28;20417;-72
2023/06/16 11:01:01;;;;;;;8.00;5.93;;;;;;;26.56;19.32;96200.41;4984711;28;20524;-73
2023/06/16 11:03:35;;;;;;;7.90;5.27;;;;;;;26.58;19.85;96190.31;4988373;28;20434;-73
2023/06/16 11:06:02;;;;;;;5.50;4.60;;;;;;;26.48;20.63;96197.69;4989658;28;21259;-74
2023/06/16 11:08:28;;;;;;;8.80;5.70;;;;;;;26.39;21.37;96186.97;4990596;28;20424;-73
2023/06/16 11:11:03;;;;;;;5.97;5.40;;;;;;;26.51;21.32;96194.69;4989684;28;21290;-74
2023/06/16 11:13:38;;;;;;;12.70;5.60;;;;;;;26.45;21.67;96190.81;4987818;28;20820;-74
2023/06/16 11:16:03;;;;;;;18.90;6.40;;;;;;;26.27;20.81;96195.53;4989408;28;20439;-73
2023/06/16 11:18:36;;;;;;;21.27;5.90;;;;;;;26.36;21.02;96195.38;4990723;28;20558;-74
2023/06/16 11:21:06;;;;;;;12.70;6.83;;;;;;;26.63;19.80;96196.03;4990020;28;20694;-73
2023/06/16 11:23:32;;;;;;;10.07;6.33;;;;;;;26.71;19.64;96196.00;4982723;28;20428;-74
2023/06/16 11:26:07;;;;;;;8.63;5.17;;;;;;;26.68;19.78;96190.97;4988528;28;20779;-73